createdAt,value
2022-07-29T00:04:21.448Z,23.1
2022-07-29T00:34:38.728Z,22.3
2022-07-29T01:04:54.688Z,21.45
2022-07-29T01:35:13.056Z,20.15
2022-07-29T02:05:28.129Z,19.75
2022-07-29T02:35:45.433Z,19.7
2022-07-29T03:06:01.282Z,19.15
2022-07-29T03:36:18.031Z,18.9
2022-07-29T04:06:36.437Z,18.5
2022-07-29T04:36:53.627Z,18.4
2022-07-29T05:07:12.258Z,19.15
2022-07-29T05:37:32.798Z,20.4
2022-07-29T06:07:58.884Z,21.65
2022-07-29T06:38:34.058Z,23.75
2022-07-29T07:08:51.079Z,25
2022-07-29T07:39:16.526Z,26.45
2022-07-29T08:09:41.938Z,28.3
2022-07-29T08:40:04.161Z,29.8
2022-07-29T09:10:25.773Z,30.8
2022-07-29T09:40:50.760Z,32
2022-07-29T10:11:01.682Z,31.5
2022-07-29T10:41:27.111Z,31.75
2022-07-29T11:11:55.780Z,32.65
2022-07-29T11:42:28.250Z,33.8
2022-07-29T12:12:46.890Z,33.8
2022-07-29T12:43:04.193Z,34.65
2022-07-29T13:13:15.877Z,33.25
2022-07-29T13:43:24.644Z,29.9
2022-07-29T14:13:35.467Z,28.85
2022-07-29T14:43:49.195Z,28.35
2022-07-29T15:14:05.590Z,26.4
2022-07-29T15:44:16.778Z,23.15
2022-07-29T16:14:35.319Z,25.35
2022-07-29T16:44:57.404Z,24.75
2022-07-29T17:15:12.071Z,23.7
2022-07-29T17:45:26.250Z,22.35
2022-07-29T18:16:00.216Z,22.15
2022-07-29T18:46:17.770Z,22
2022-07-29T19:16:35.470Z,21.8
2022-07-29T19:46:53.077Z,21.3
2022-07-29T20:17:10.030Z,21.1
2022-07-29T20:47:27.620Z,20.95
2022-07-29T21:17:45.189Z,20.65
2022-07-29T21:48:03.461Z,20.45
2022-07-29T22:18:21.026Z,19.9
2022-07-29T22:48:39.364Z,19.8
2022-07-29T23:18:57.597Z,19.8
2022-07-29T23:49:15.511Z,19.5
